createdAt,value
2022-09-25T00:02:52.207Z,18.9
2022-09-25T00:08:14.206Z,18.9
2022-09-25T00:13:54.831Z,18.9
2022-09-25T00:19:32.250Z,18.9
2022-09-25T00:25:09.589Z,18.9
2022-09-25T00:30:47.336Z,18.9
2022-09-25T00:36:09.915Z,18.9
2022-09-25T00:41:32.414Z,18.9
2022-09-25T00:46:53.729Z,18.9
2022-09-25T00:52:31.121Z,18.9
2022-09-25T00:57:53.460Z,18.9
2022-09-25T01:03:31.667Z,18.9
2022-09-25T01:09:09.501Z,18.9
2022-09-25T01:14:46.309Z,18.9
2022-09-25T01:20:09.689Z,18.9
2022-09-25T01:25:47.909Z,18.9
2022-09-25T01:31:24.742Z,18.9
2022-09-25T01:37:02.491Z,18.9
2022-09-25T01:42:40.050Z,18.9
2022-09-25T01:48:01.619Z,18.9
2022-09-25T01:53:22.181Z,18.9
2022-09-25T01:58:44.045Z,18.9
2022-09-25T02:04:21.962Z,18.9
2022-09-25T02:09:43.399Z,18.9
2022-09-25T02:15:05.072Z,18.9
2022-09-25T02:20:11.670Z,18.9
2022-09-25T02:25:33.209Z,18.9
2022-09-25T02:30:55.758Z,18.9
2022-09-25T02:36:22.001Z,18.9
2022-09-25T02:41:28.168Z,18.9
2022-09-25T02:47:06.021Z,18.9
2022-09-25T02:52:27.304Z,18.9
2022-09-25T02:58:10.090Z,18.9
2022-09-25T03:03:47.423Z,18.9
2022-09-25T03:09:10.149Z,18.9
2022-09-25T03:14:16.156Z,18.9
2022-09-25T03:19:38.905Z,18.9
2022-09-25T03:24:45.884Z,18.9
2022-09-25T03:30:22.812Z,18.9
2022-09-25T03:35:29.763Z,18.9
2022-09-25T03:40:51.053Z,18.9
2022-09-25T03:46:11.673Z,18.9
2022-09-25T03:51:33.058Z,18.9
2022-09-25T03:56:24.167Z,18.9
2022-09-25T04:01:46.689Z,18.9
2022-09-25T04:06:53.546Z,18.9
2022-09-25T04:12:00.024Z,18.9
2022-09-25T04:17:07.151Z,18.8
2022-09-25T04:22:12.944Z,18.9
2022-09-25T04:27:05.569Z,18.8
2022-09-25T04:32:26.225Z,18.8
2022-09-25T04:38:03.979Z,18.8
2022-09-25T04:43:25.867Z,18.8
2022-09-25T04:48:52.808Z,18.8
2022-09-25T04:54:15.290Z,18.8
2022-09-25T05:00:10.250Z,18.8
2022-09-25T05:05:35.104Z,18.8
2022-09-25T05:10:57.626Z,18.8
2022-09-25T05:16:20.157Z,18.8
2022-09-25T05:21:43.162Z,18.8
2022-09-25T05:27:11.004Z,18.8
2022-09-25T05:32:17.680Z,18.8
2022-09-25T05:37:55.704Z,18.8
2022-09-25T05:43:33.519Z,18.8
2022-09-25T05:48:55.946Z,18.8
2022-09-25T05:54:34.283Z,18.8
2022-09-25T06:16:15.361Z,18.6
2022-09-25T06:21:56.436Z,18.6
2022-09-25T06:27:33.240Z,18.6
2022-09-25T06:33:17.907Z,18.6
2022-09-25T06:38:56.982Z,18.5
2022-09-25T06:44:36.535Z,18.5
2022-09-25T06:50:20.529Z,18.5
2022-09-25T06:55:58.138Z,18.5
2022-09-25T07:01:26.216Z,18.5
2022-09-25T07:07:04.428Z,18.5
2022-09-25T07:12:42.717Z,18.5
2022-09-25T07:18:20.277Z,18.5
2022-09-25T07:23:58.621Z,18.5
2022-09-25T07:29:36.932Z,18.5
2022-09-25T07:35:15.207Z,18.5
2022-09-25T07:40:58.841Z,18.5
2022-09-25T07:47:02.826Z,18.5
2022-09-25T07:52:29.566Z,18.5
2022-09-25T07:58:08.051Z,18.5
2022-09-25T08:03:55.202Z,18.5
2022-09-25T08:09:34.603Z,18.4
2022-09-25T08:15:17.848Z,18.5
2022-09-25T08:20:42.749Z,18.5
2022-09-25T08:26:22.913Z,18.5
2022-09-25T08:32:03.522Z,18.5
2022-09-25T08:38:01.747Z,18.5
2022-09-25T08:43:44.273Z,18.5
2022-09-25T08:49:50.422Z,18.5
2022-09-25T08:55:18.363Z,18.5
2022-09-25T09:00:58.272Z,18.5
2022-09-25T09:06:25.130Z,18.5
2022-09-25T09:12:20.814Z,18.5
2022-09-25T09:17:29.330Z,18.5
2022-09-25T09:22:53.368Z,18.5
2022-09-25T09:28:22.303Z,18.6
2022-09-25T09:33:30.657Z,18.6
2022-09-25T09:39:26.644Z,18.6
2022-09-25T09:44:51.553Z,18.6
2022-09-25T09:50:30.512Z,18.6
2022-09-25T09:56:15.007Z,18.6
2022-09-25T10:02:27.914Z,18.6
2022-09-25T10:08:08.708Z,18.6
2022-09-25T10:13:48.142Z,18.6
2022-09-25T10:19:28.643Z,18.6
2022-09-25T10:25:11.865Z,18.6
2022-09-25T20:08:13.336Z,19
2022-09-25T20:13:55.917Z,19
2022-09-25T20:19:40.009Z,19.1
2022-09-25T20:25:05.549Z,19.1
2022-09-25T20:30:45.985Z,19.1
2022-09-25T20:36:11.027Z,19.1
2022-09-25T20:41:53.159Z,19.1
2022-09-25T20:47:18.041Z,19.1
2022-09-25T20:52:57.672Z,19.1
2022-09-25T20:58:38.600Z,19.1
2022-09-25T21:04:20.319Z,19.1
2022-09-25T21:09:48.085Z,19.1
2022-09-25T21:15:28.602Z,19.1
2022-09-25T21:21:08.694Z,19.1
2022-09-25T21:26:48.288Z,19.1
2022-09-25T21:32:15.129Z,19.2
2022-09-25T21:37:55.215Z,19.1
2022-09-25T21:43:21.017Z,19.2
2022-09-25T21:49:01.153Z,19.1
2022-09-25T21:54:40.546Z,19.1
2022-09-25T22:00:18.567Z,19.2
2022-09-25T22:05:58.379Z,19.2
2022-09-25T22:11:37.173Z,19.2
2022-09-25T22:17:03.777Z,19.2
2022-09-25T22:22:26.404Z,19.1
2022-09-25T22:28:04.597Z,19.2
2022-09-25T22:33:27.420Z,19.2
2022-09-25T22:39:12.074Z,19.2
2022-09-25T22:44:34.644Z,19.2
2022-09-25T22:50:11.472Z,19.2
2022-09-25T22:55:48.806Z,19.2
2022-09-25T23:01:26.896Z,19.2
2022-09-25T23:07:04.732Z,19.2
2022-09-25T23:13:04.646Z,19.1
2022-09-25T23:18:43.180Z,19.2
2022-09-25T23:24:18.581Z,19.2
2022-09-25T23:29:41.657Z,19.2
2022-09-25T23:35:04.090Z,19.2
2022-09-25T23:40:29.962Z,19.2
2022-09-25T23:45:52.609Z,19.2
2022-09-25T23:51:30.766Z,19.2
2022-09-25T23:57:08.541Z,19.1
